Flight Track Log - Related Links

Times and Time Zones

All times are in EDT time to prevent confusion due to time zone crossing. See the RPA4937 flight status page for this flight to view local times or setup timezone preferences in your user account.

Time Position Orientation Groundspeed Altitude Reporting Facility
EDT Latitude Longitude Course Direction KTS MPH feet Rate Location/Type
Tue 05:46:41 AM 39.1500 -76.6167 49° Northeast 174 200 3,700  Level Potomac TRACON
Tue 05:47:35 AM 39.1667 -76.5500 72° East 223 257 5,800 1,737 Climbing Potomac TRACON
Tue 05:48:35 AM 39.2000 -76.4833 57° Northeast 255 293 7,000 600 Climbing Potomac TRACON
Tue 05:49:00 AM 39.1901 -76.1632 46° Northeast  Level FlightAware Approximate
Tue 05:49:35 AM 39.2500 -76.4000 52° Northeast 258 297 7,000  Level Potomac TRACON
Tue 05:50:00 AM 39.2677 -76.0765 46° Northeast  Level FlightAware Approximate
Tue 05:50:35 AM 39.3000 -76.3333 46° Northeast 269 310 8,100  Level Potomac TRACON
Tue 05:51:00 AM 39.3397 -75.9821 49° Northeast  Level FlightAware Approximate
Tue 05:51:35 AM 39.3333 -76.2500 63° Northeast 276 318 10,200  Level Potomac TRACON
Tue 05:52:35 AM 39.3833 -76.1667 52° Northeast 309 356 11,000 320 Climbing Potomac TRACON
Tue 05:54:24 AM 39.4833 -75.9833 55° Northeast 327 376 11,100 35 Climbing Philadelphia TRACON
Tue 05:55:25 AM 39.5167 -75.8833 67° East 330 380 11,100 -50 Level Philadelphia TRACON
Tue 05:56:25 AM 39.5667 -75.7833 57° Northeast 322 371 11,000  Descending Philadelphia TRACON
Tue 05:57:31 AM 39.6000 -75.6667 70° East 325 374 11,100  Climbing Philadelphia TRACON
Tue 05:58:31 AM 39.6500 -75.5500 61° Northeast 325 374 11,000 -600 Descending Philadelphia TRACON
Tue 05:59:31 AM 39.6833 -75.4667 63° Northeast 279 321 9,900 -1,048 Descending Philadelphia TRACON
Tue 06:00:37 AM 39.7167 -75.3667 67° East 277 319 8,800 -1,000 Descending Philadelphia TRACON
Tue 06:01:25 AM 39.7500 -75.3000 57° Northeast 272 313 8,000 -944 Descending Philadelphia TRACON
Tue 06:02:25 AM 39.7833 -75.2167 62° Northeast 263 303 7,100 -476 Descending Philadelphia TRACON
Tue 06:03:31 AM 39.8167 -75.1167 67° East 251 289 7,000 -50 Descending Philadelphia TRACON
Tue 06:04:25 AM 39.8333 -75.0500 72° East 265 305 7,000  Level Philadelphia TRACON
Tue 06:05:31 AM 39.8833 -74.9500 57° Northeast 268 308 7,000  Level Philadelphia TRACON
Tue 06:06:31 AM 39.9333 -74.8833 46° Northeast 269 310 7,000  Level Philadelphia TRACON
Tue 06:08:22 AM 40.0333 -74.7500 46° Northeast 271 312 7,000  Level New York TRACON
Tue 06:09:28 AM 40.0833 -74.6667 52° Northeast 268 308 7,000  Level New York TRACON
Tue 06:10:22 AM 40.1167 -74.6167 49° Northeast 264 304 7,000  Level New York TRACON
Tue 06:11:22 AM 40.1667 -74.5333 52° Northeast 264 304 7,000  Level New York TRACON
Tue 06:12:22 AM 40.2333 -74.4667 37° Northeast 266 306 7,000  Level New York TRACON
Tue 06:13:22 AM 40.2833 -74.4167 37° Northeast 268 308 7,000 -250 Level New York TRACON
Tue 06:14:22 AM 40.3500 -74.3833 21° North 231 266 6,500 -955 Descending New York TRACON
Tue 06:15:34 AM 40.4167 -74.3333 30° Northeast 200 230 4,900 -1,429 Descending New York TRACON
Tue 06:16:28 AM 40.4667 -74.3167 14° North 202 232 3,500 -950 Descending New York TRACON
Tue 06:17:34 AM 40.5167 -74.2833 27° Northeast 188 216 3,000 -455 Descending New York TRACON

Login

Don't have an account? Register now (free) for customized features, flight alerts, and more!